sensor_id;sensor_type;location;lat;lon;timestamp;P1;durP1;ratioP1;P2;durP2;ratioP2
15876;SDS011;8037;51.666;7.834;2023-05-20T00:00:52;2.87;;;1.60;;
15876;SDS011;8037;51.666;7.834;2023-05-20T00:03:18;2.40;;;1.50;;
15876;SDS011;8037;51.666;7.834;2023-05-20T00:05:45;1.60;;;1.20;;
15876;SDS011;8037;51.666;7.834;2023-05-20T00:08:11;5.13;;;0.87;;
15876;SDS011;8037;51.666;7.834;2023-05-20T00:10:37;1.53;;;1.43;;
15876;SDS011;8037;51.666;7.834;2023-05-20T00:13:03;1.83;;;1.00;;
15876;SDS011;8037;51.666;7.834;2023-05-20T00:15:30;1.10;;;1.00;;
15876;SDS011;8037;51.666;7.834;2023-05-20T00:17:56;1.27;;;1.13;;
15876;SDS011;8037;51.666;7.834;2023-05-20T00:20:22;8.90;;;1.70;;
15876;SDS011;8037;51.666;7.834;2023-05-20T00:22:49;3.63;;;1.23;;
15876;SDS011;8037;51.666;7.834;2023-05-20T00:25:15;5.57;;;1.50;;
15876;SDS011;8037;51.666;7.834;2023-05-20T00:27:41;2.17;;;1.20;;
15876;SDS011;8037;51.666;7.834;2023-05-20T00:30:07;1.20;;;1.07;;
15876;SDS011;8037;51.666;7.834;2023-05-20T00:32:33;2.83;;;1.20;;
15876;SDS011;8037;51.666;7.834;2023-05-20T00:34:59;1.37;;;1.30;;
15876;SDS011;8037;51.666;7.834;2023-05-20T00:37:25;3.33;;;1.40;;
15876;SDS011;8037;51.666;7.834;2023-05-20T00:39:52;2.83;;;1.53;;
15876;SDS011;8037;51.666;7.834;2023-05-20T00:42:18;1.33;;;1.23;;
15876;SDS011;8037;51.666;7.834;2023-05-20T00:44:48;0.90;;;0.90;;
15876;SDS011;8037;51.666;7.834;2023-05-20T00:47:18;1.67;;;1.57;;
15876;SDS011;8037;51.666;7.834;2023-05-20T00:49:45;1.80;;;1.70;;
15876;SDS011;8037;51.666;7.834;2023-05-20T00:52:11;2.50;;;1.50;;
15876;SDS011;8037;51.666;7.834;2023-05-20T00:54:39;1.67;;;1.57;;
15876;SDS011;8037;51.666;7.834;2023-05-20T00:57:05;1.63;;;1.43;;
15876;SDS011;8037;51.666;7.834;2023-05-20T00:59:32;5.80;;;1.57;;
15876;SDS011;8037;51.666;7.834;2023-05-20T01:01:58;15.93;;;2.43;;
15876;SDS011;8037;51.666;7.834;2023-05-20T01:04:24;6.20;;;1.90;;
15876;SDS011;8037;51.666;7.834;2023-05-20T01:06:51;1.43;;;1.33;;
15876;SDS011;8037;51.666;7.834;2023-05-20T01:09:17;1.83;;;1.30;;
15876;SDS011;8037;51.666;7.834;2023-05-20T01:11:47;0.80;;;0.80;;
15876;SDS011;8037;51.666;7.834;2023-05-20T01:14:16;7.17;;;1.50;;
15876;SDS011;8037;51.666;7.834;2023-05-20T01:16:44;1.97;;;1.73;;
15876;SDS011;8037;51.666;7.834;2023-05-20T01:19:19;1.73;;;1.63;;
15876;SDS011;8037;51.666;7.834;2023-05-20T01:21:46;1.20;;;0.93;;
15876;SDS011;8037;51.666;7.834;2023-05-20T01:24:12;1.60;;;1.50;;
15876;SDS011;8037;51.666;7.834;2023-05-20T01:26:38;6.07;;;1.80;;
15876;SDS011;8037;51.666;7.834;2023-05-20T01:29:04;1.10;;;1.10;;
15876;SDS011;8037;51.666;7.834;2023-05-20T01:31:31;1.90;;;1.73;;
15876;SDS011;8037;51.666;7.834;2023-05-20T01:33:58;2.10;;;1.73;;
15876;SDS011;8037;51.666;7.834;2023-05-20T01:36:25;1.80;;;1.50;;
15876;SDS011;8037;51.666;7.834;2023-05-20T01:38:51;1.30;;;1.20;;
15876;SDS011;8037;51.666;7.834;2023-05-20T01:41:18;1.40;;;1.30;;
15876;SDS011;8037;51.666;7.834;2023-05-20T01:43:44;1.50;;;1.40;;
15876;SDS011;8037;51.666;7.834;2023-05-20T01:46:10;5.07;;;1.20;;
15876;SDS011;8037;51.666;7.834;2023-05-20T01:48:36;2.80;;;1.70;;
15876;SDS011;8037;51.666;7.834;2023-05-20T01:51:02;2.20;;;1.37;;
15876;SDS011;8037;51.666;7.834;2023-05-20T01:53:28;1.50;;;1.40;;
15876;SDS011;8037;51.666;7.834;2023-05-20T01:55:54;3.87;;;1.60;;
15876;SDS011;8037;51.666;7.834;2023-05-20T01:58:20;1.70;;;1.60;;
15876;SDS011;8037;51.666;7.834;2023-05-20T02:00:46;1.30;;;1.30;;
15876;SDS011;8037;51.666;7.834;2023-05-20T02:03:12;1.90;;;1.57;;
15876;SDS011;8037;51.666;7.834;2023-05-20T02:05:38;1.87;;;1.70;;
15876;SDS011;8037;51.666;7.834;2023-05-20T02:08:05;1.47;;;1.37;;
15876;SDS011;8037;51.666;7.834;2023-05-20T02:10:31;1.33;;;1.33;;
15876;SDS011;8037;51.666;7.834;2023-05-20T02:12:57;3.90;;;1.57;;
15876;SDS011;8037;51.666;7.834;2023-05-20T02:15:23;1.70;;;1.27;;
15876;SDS011;8037;51.666;7.834;2023-05-20T02:17:49;1.67;;;1.27;;
15876;SDS011;8037;51.666;7.834;2023-05-20T02:20:15;1.40;;;1.23;;
15876;SDS011;8037;51.666;7.834;2023-05-20T02:22:41;1.77;;;1.67;;
15876;SDS011;8037;51.666;7.834;2023-05-20T02:25:07;1.47;;;1.47;;
15876;SDS011;8037;51.666;7.834;2023-05-20T02:27:33;1.63;;;1.50;;
15876;SDS011;8037;51.666;7.834;2023-05-20T02:29:59;1.43;;;1.33;;
15876;SDS011;8037;51.666;7.834;2023-05-20T02:32:25;1.87;;;1.70;;
15876;SDS011;8037;51.666;7.834;2023-05-20T02:34:55;2.10;;;1.80;;
15876;SDS011;8037;51.666;7.834;2023-05-20T02:37:21;1.03;;;1.03;;
15876;SDS011;8037;51.666;7.834;2023-05-20T02:39:47;2.20;;;1.30;;
15876;SDS011;8037;51.666;7.834;2023-05-20T02:42:14;3.27;;;1.83;;
15876;SDS011;8037;51.666;7.834;2023-05-20T02:44:39;1.70;;;1.60;;
15876;SDS011;8037;51.666;7.834;2023-05-20T02:47:05;1.53;;;1.40;;
15876;SDS011;8037;51.666;7.834;2023-05-20T02:49:31;4.90;;;1.50;;
15876;SDS011;8037;51.666;7.834;2023-05-20T02:51:57;2.30;;;1.10;;
15876;SDS011;8037;51.666;7.834;2023-05-20T02:54:23;1.60;;;1.50;;
15876;SDS011;8037;51.666;7.834;2023-05-20T02:56:49;6.80;;;1.37;;
15876;SDS011;8037;51.666;7.834;2023-05-20T02:59:15;2.00;;;1.80;;
15876;SDS011;8037;51.666;7.834;2023-05-20T03:01:41;3.93;;;1.30;;
15876;SDS011;8037;51.666;7.834;2023-05-20T03:04:07;1.90;;;1.80;;
15876;SDS011;8037;51.666;7.834;2023-05-20T03:06:33;1.40;;;1.30;;
15876;SDS011;8037;51.666;7.834;2023-05-20T03:08:59;1.43;;;1.33;;
15876;SDS011;8037;51.666;7.834;2023-05-20T03:11:25;3.90;;;1.70;;
15876;SDS011;8037;51.666;7.834;2023-05-20T03:13:51;1.87;;;1.77;;
15876;SDS011;8037;51.666;7.834;2023-05-20T03:16:17;2.50;;;1.43;;
15876;SDS011;8037;51.666;7.834;2023-05-20T03:18:43;1.60;;;1.50;;
15876;SDS011;8037;51.666;7.834;2023-05-20T03:21:10;1.97;;;1.87;;
15876;SDS011;8037;51.666;7.834;2023-05-20T03:23:36;2.20;;;1.40;;
15876;SDS011;8037;51.666;7.834;2023-05-20T03:26:02;2.00;;;1.90;;
15876;SDS011;8037;51.666;7.834;2023-05-20T03:28:27;1.47;;;1.37;;
15876;SDS011;8037;51.666;7.834;2023-05-20T03:30:53;1.60;;;1.50;;
15876;SDS011;8037;51.666;7.834;2023-05-20T03:33:19;2.60;;;2.07;;
15876;SDS011;8037;51.666;7.834;2023-05-20T03:35:46;2.00;;;1.27;;
15876;SDS011;8037;51.666;7.834;2023-05-20T03:38:12;2.67;;;1.83;;
15876;SDS011;8037;51.666;7.834;2023-05-20T03:40:38;1.60;;;1.50;;
15876;SDS011;8037;51.666;7.834;2023-05-20T03:43:04;1.63;;;1.50;;
15876;SDS011;8037;51.666;7.834;2023-05-20T03:45:30;2.80;;;1.90;;
15876;SDS011;8037;51.666;7.834;2023-05-20T03:47:58;7.50;;;1.60;;
15876;SDS011;8037;51.666;7.834;2023-05-20T03:50:24;1.23;;;1.23;;
15876;SDS011;8037;51.666;7.834;2023-05-20T03:52:50;1.77;;;1.67;;
15876;SDS011;8037;51.666;7.834;2023-05-20T03:55:16;1.77;;;1.67;;
15876;SDS011;8037;51.666;7.834;2023-05-20T03:57:44;2.50;;;2.30;;
15876;SDS011;8037;51.666;7.834;2023-05-20T04:00:10;3.63;;;1.40;;
15876;SDS011;8037;51.666;7.834;2023-05-20T04:02:38;1.67;;;1.57;;
15876;SDS011;8037;51.666;7.834;2023-05-20T04:05:04;7.10;;;1.80;;
15876;SDS011;8037;51.666;7.834;2023-05-20T04:07:32;2.77;;;1.33;;
15876;SDS011;8037;51.666;7.834;2023-05-20T04:09:58;1.33;;;1.23;;
15876;SDS011;8037;51.666;7.834;2023-05-20T04:12:24;1.60;;;1.50;;
15876;SDS011;8037;51.666;7.834;2023-05-20T04:14:54;1.90;;;1.80;;
15876;SDS011;8037;51.666;7.834;2023-05-20T04:17:22;1.70;;;1.43;;
15876;SDS011;8037;51.666;7.834;2023-05-20T04:19:47;2.80;;;1.60;;
15876;SDS011;8037;51.666;7.834;2023-05-20T04:22:13;2.33;;;1.60;;
15876;SDS011;8037;51.666;7.834;2023-05-20T04:24:39;2.27;;;1.70;;
15876;SDS011;8037;51.666;7.834;2023-05-20T04:27:05;3.07;;;1.50;;
15876;SDS011;8037;51.666;7.834;2023-05-20T04:29:31;4.33;;;1.67;;
15876;SDS011;8037;51.666;7.834;2023-05-20T04:31:58;1.50;;;1.17;;
15876;SDS011;8037;51.666;7.834;2023-05-20T04:34:27;2.70;;;1.50;;
15876;SDS011;8037;51.666;7.834;2023-05-20T04:36:53;2.63;;;1.60;;
15876;SDS011;8037;51.666;7.834;2023-05-20T04:39:21;1.83;;;1.73;;
15876;SDS011;8037;51.666;7.834;2023-05-20T04:41:47;0.83;;;0.83;;
15876;SDS011;8037;51.666;7.834;2023-05-20T04:44:13;1.43;;;1.33;;
15876;SDS011;8037;51.666;7.834;2023-05-20T04:46:39;3.13;;;1.57;;
15876;SDS011;8037;51.666;7.834;2023-05-20T04:49:05;2.30;;;1.43;;
15876;SDS011;8037;51.666;7.834;2023-05-20T04:51:31;5.47;;;1.80;;
15876;SDS011;8037;51.666;7.834;2023-05-20T04:53:59;2.13;;;1.73;;
15876;SDS011;8037;51.666;7.834;2023-05-20T04:56:25;5.80;;;2.03;;
15876;SDS011;8037;51.666;7.834;2023-05-20T04:58:51;2.00;;;1.60;;
15876;SDS011;8037;51.666;7.834;2023-05-20T05:01:16;2.00;;;1.80;;
15876;SDS011;8037;51.666;7.834;2023-05-20T05:03:43;3.30;;;1.60;;
15876;SDS011;8037;51.666;7.834;2023-05-20T05:06:09;5.80;;;1.53;;
15876;SDS011;8037;51.666;7.834;2023-05-20T05:08:35;2.87;;;2.40;;
15876;SDS011;8037;51.666;7.834;2023-05-20T05:11:03;3.00;;;2.07;;
15876;SDS011;8037;51.666;7.834;2023-05-20T05:13:30;4.03;;;2.33;;
15876;SDS011;8037;51.666;7.834;2023-05-20T05:15:59;2.80;;;1.83;;
15876;SDS011;8037;51.666;7.834;2023-05-20T05:18:25;1.93;;;1.83;;
15876;SDS011;8037;51.666;7.834;2023-05-20T05:21:03;10.40;;;2.00;;
15876;SDS011;8037;51.666;7.834;2023-05-20T05:23:30;1.93;;;1.83;;
15876;SDS011;8037;51.666;7.834;2023-05-20T05:25:56;1.83;;;1.43;;
15876;SDS011;8037;51.666;7.834;2023-05-20T05:28:22;2.27;;;2.07;;
15876;SDS011;8037;51.666;7.834;2023-05-20T05:30:48;3.83;;;1.53;;
15876;SDS011;8037;51.666;7.834;2023-05-20T05:33:14;1.90;;;1.63;;
15876;SDS011;8037;51.666;7.834;2023-05-20T05:35:41;1.63;;;1.53;;
15876;SDS011;8037;51.666;7.834;2023-05-20T05:38:07;3.60;;;1.93;;
15876;SDS011;8037;51.666;7.834;2023-05-20T05:40:33;2.50;;;1.60;;
15876;SDS011;8037;51.666;7.834;2023-05-20T05:42:59;1.23;;;1.23;;
15876;SDS011;8037;51.666;7.834;2023-05-20T05:45:25;2.20;;;1.80;;
15876;SDS011;8037;51.666;7.834;2023-05-20T05:47:51;1.40;;;1.30;;
15876;SDS011;8037;51.666;7.834;2023-05-20T05:50:17;2.17;;;1.97;;
15876;SDS011;8037;51.666;7.834;2023-05-20T05:52:42;2.23;;;2.13;;
15876;SDS011;8037;51.666;7.834;2023-05-20T05:55:08;2.53;;;1.60;;
15876;SDS011;8037;51.666;7.834;2023-05-20T05:57:35;2.37;;;2.17;;
15876;SDS011;8037;51.666;7.834;2023-05-20T06:00:01;3.70;;;1.73;;
15876;SDS011;8037;51.666;7.834;2023-05-20T06:02:27;3.00;;;2.13;;
15876;SDS011;8037;51.666;7.834;2023-05-20T06:04:52;5.90;;;1.77;;
15876;SDS011;8037;51.666;7.834;2023-05-20T06:07:18;7.40;;;2.37;;
15876;SDS011;8037;51.666;7.834;2023-05-20T06:09:44;2.23;;;2.13;;
15876;SDS011;8037;51.666;7.834;2023-05-20T06:12:10;4.73;;;2.30;;
15876;SDS011;8037;51.666;7.834;2023-05-20T06:14:36;2.27;;;2.17;;
15876;SDS011;8037;51.666;7.834;2023-05-20T06:17:02;4.00;;;2.60;;
15876;SDS011;8037;51.666;7.834;2023-05-20T06:19:29;2.03;;;1.90;;
15876;SDS011;8037;51.666;7.834;2023-05-20T06:21:55;2.07;;;1.97;;
15876;SDS011;8037;51.666;7.834;2023-05-20T06:24:22;6.10;;;2.40;;
15876;SDS011;8037;51.666;7.834;2023-05-20T06:26:48;1.60;;;1.50;;
15876;SDS011;8037;51.666;7.834;2023-05-20T06:29:15;2.53;;;2.33;;
15876;SDS011;8037;51.666;7.834;2023-05-20T06:31:40;2.20;;;2.10;;
15876;SDS011;8037;51.666;7.834;2023-05-20T06:34:06;2.40;;;2.20;;
15876;SDS011;8037;51.666;7.834;2023-05-20T06:36:32;3.00;;;2.60;;
15876;SDS011;8037;51.666;7.834;2023-05-20T06:38:58;2.47;;;2.23;;
15876;SDS011;8037;51.666;7.834;2023-05-20T06:41:24;5.40;;;2.33;;
15876;SDS011;8037;51.666;7.834;2023-05-20T06:43:50;4.40;;;2.50;;
15876;SDS011;8037;51.666;7.834;2023-05-20T06:46:16;3.03;;;2.23;;
15876;SDS011;8037;51.666;7.834;2023-05-20T06:48:42;9.77;;;2.60;;
15876;SDS011;8037;51.666;7.834;2023-05-20T06:51:08;2.70;;;2.10;;
15876;SDS011;8037;51.666;7.834;2023-05-20T06:53:34;2.90;;;2.30;;
15876;SDS011;8037;51.666;7.834;2023-05-20T06:56:01;2.50;;;2.30;;
15876;SDS011;8037;51.666;7.834;2023-05-20T06:58:27;6.67;;;2.10;;
15876;SDS011;8037;51.666;7.834;2023-05-20T07:00:53;2.53;;;2.37;;
15876;SDS011;8037;51.666;7.834;2023-05-20T07:03:19;7.00;;;2.33;;
15876;SDS011;8037;51.666;7.834;2023-05-20T07:05:45;2.20;;;2.00;;
15876;SDS011;8037;51.666;7.834;2023-05-20T07:08:11;2.60;;;2.40;;
15876;SDS011;8037;51.666;7.834;2023-05-20T07:10:37;8.90;;;2.83;;
15876;SDS011;8037;51.666;7.834;2023-05-20T07:13:03;2.80;;;2.60;;
15876;SDS011;8037;51.666;7.834;2023-05-20T07:15:29;9.10;;;3.30;;
15876;SDS011;8037;51.666;7.834;2023-05-20T07:17:55;4.73;;;2.57;;
15876;SDS011;8037;51.666;7.834;2023-05-20T07:20:21;3.20;;;3.00;;
15876;SDS011;8037;51.666;7.834;2023-05-20T07:22:47;4.27;;;3.00;;
15876;SDS011;8037;51.666;7.834;2023-05-20T07:25:14;12.63;;;2.70;;
15876;SDS011;8037;51.666;7.834;2023-05-20T07:27:40;10.90;;;3.00;;
15876;SDS011;8037;51.666;7.834;2023-05-20T07:30:06;7.63;;;2.93;;
15876;SDS011;8037;51.666;7.834;2023-05-20T07:32:33;3.63;;;3.10;;
15876;SDS011;8037;51.666;7.834;2023-05-20T07:34:59;3.80;;;3.27;;
15876;SDS011;8037;51.666;7.834;2023-05-20T07:37:25;4.27;;;3.20;;
15876;SDS011;8037;51.666;7.834;2023-05-20T07:39:51;6.60;;;3.47;;
15876;SDS011;8037;51.666;7.834;2023-05-20T07:42:17;2.90;;;2.60;;
15876;SDS011;8037;51.666;7.834;2023-05-20T07:44:43;4.47;;;3.23;;
15876;SDS011;8037;51.666;7.834;2023-05-20T07:47:09;10.60;;;3.30;;
15876;SDS011;8037;51.666;7.834;2023-05-20T07:49:35;3.53;;;3.20;;
15876;SDS011;8037;51.666;7.834;2023-05-20T07:52:01;3.60;;;2.80;;
15876;SDS011;8037;51.666;7.834;2023-05-20T07:54:27;5.23;;;2.90;;
15876;SDS011;8037;51.666;7.834;2023-05-20T07:56:53;5.20;;;3.10;;
15876;SDS011;8037;51.666;7.834;2023-05-20T07:59:19;6.33;;;3.30;;
15876;SDS011;8037;51.666;7.834;2023-05-20T08:01:45;3.20;;;2.90;;
15876;SDS011;8037;51.666;7.834;2023-05-20T08:04:11;4.13;;;2.70;;
15876;SDS011;8037;51.666;7.834;2023-05-20T08:06:37;10.20;;;2.80;;
15876;SDS011;8037;51.666;7.834;2023-05-20T08:09:03;2.93;;;2.73;;
15876;SDS011;8037;51.666;7.834;2023-05-20T08:11:29;3.57;;;2.50;;
15876;SDS011;8037;51.666;7.834;2023-05-20T08:13:55;5.83;;;3.07;;
15876;SDS011;8037;51.666;7.834;2023-05-20T08:16:21;3.00;;;2.43;;
15876;SDS011;8037;51.666;7.834;2023-05-20T08:18:47;2.93;;;2.57;;
15876;SDS011;8037;51.666;7.834;2023-05-20T08:21:12;6.27;;;3.37;;
15876;SDS011;8037;51.666;7.834;2023-05-20T08:23:39;2.67;;;2.47;;
15876;SDS011;8037;51.666;7.834;2023-05-20T08:26:05;3.90;;;3.30;;
15876;SDS011;8037;51.666;7.834;2023-05-20T08:28:31;5.57;;;3.17;;
15876;SDS011;8037;51.666;7.834;2023-05-20T08:30:59;6.63;;;2.67;;
15876;SDS011;8037;51.666;7.834;2023-05-20T08:33:26;3.73;;;3.07;;
15876;SDS011;8037;51.666;7.834;2023-05-20T08:35:52;3.13;;;2.83;;
15876;SDS011;8037;51.666;7.834;2023-05-20T08:38:18;5.90;;;2.73;;
15876;SDS011;8037;51.666;7.834;2023-05-20T08:40:44;2.90;;;2.43;;
15876;SDS011;8037;51.666;7.834;2023-05-20T08:43:10;9.43;;;3.23;;
15876;SDS011;8037;51.666;7.834;2023-05-20T08:45:37;2.90;;;2.30;;
15876;SDS011;8037;51.666;7.834;2023-05-20T08:48:03;3.37;;;3.07;;
15876;SDS011;8037;51.666;7.834;2023-05-20T08:50:29;3.17;;;2.90;;
15876;SDS011;8037;51.666;7.834;2023-05-20T08:52:55;2.77;;;2.57;;
15876;SDS011;8037;51.666;7.834;2023-05-20T08:57:51;3.60;;;3.27;;
15876;SDS011;8037;51.666;7.834;2023-05-20T09:00:18;7.33;;;3.67;;
15876;SDS011;8037;51.666;7.834;2023-05-20T09:02:47;7.73;;;3.43;;
15876;SDS011;8037;51.666;7.834;2023-05-20T09:05:13;4.93;;;2.93;;
15876;SDS011;8037;51.666;7.834;2023-05-20T09:07:40;3.17;;;2.87;;
15876;SDS011;8037;51.666;7.834;2023-05-20T09:10:07;4.53;;;3.53;;
15876;SDS011;8037;51.666;7.834;2023-05-20T09:12:33;3.30;;;3.00;;
15876;SDS011;8037;51.666;7.834;2023-05-20T09:14:59;3.50;;;3.20;;
15876;SDS011;8037;51.666;7.834;2023-05-20T09:17:25;14.17;;;3.47;;
15876;SDS011;8037;51.666;7.834;2023-05-20T09:19:54;3.90;;;3.50;;
15876;SDS011;8037;51.666;7.834;2023-05-20T09:22:21;3.70;;;3.37;;
15876;SDS011;8037;51.666;7.834;2023-05-20T09:24:47;4.37;;;3.97;;
15876;SDS011;8037;51.666;7.834;2023-05-20T09:27:13;3.57;;;2.90;;
15876;SDS011;8037;51.666;7.834;2023-05-20T09:29:39;3.40;;;3.03;;
15876;SDS011;8037;51.666;7.834;2023-05-20T09:32:05;21.17;;;3.87;;
15876;SDS011;8037;51.666;7.834;2023-05-20T09:34:31;11.77;;;3.50;;
15876;SDS011;8037;51.666;7.834;2023-05-20T09:36:57;4.00;;;3.70;;
15876;SDS011;8037;51.666;7.834;2023-05-20T09:39:24;6.27;;;3.73;;
15876;SDS011;8037;51.666;7.834;2023-05-20T09:42:06;3.50;;;3.20;;
15876;SDS011;8037;51.666;7.834;2023-05-20T09:44:39;6.13;;;3.50;;
15876;SDS011;8037;51.666;7.834;2023-05-20T09:47:06;3.50;;;3.20;;
15876;SDS011;8037;51.666;7.834;2023-05-20T09:49:33;5.23;;;3.20;;
15876;SDS011;8037;51.666;7.834;2023-05-20T09:52:01;7.03;;;3.27;;
15876;SDS011;8037;51.666;7.834;2023-05-20T09:54:28;2.87;;;2.63;;
15876;SDS011;8037;51.666;7.834;2023-05-20T09:56:55;3.70;;;3.00;;
15876;SDS011;8037;51.666;7.834;2023-05-20T09:59:21;4.03;;;3.60;;
15876;SDS011;8037;51.666;7.834;2023-05-20T10:01:48;7.80;;;3.23;;
15876;SDS011;8037;51.666;7.834;2023-05-20T10:04:15;4.20;;;3.43;;
15876;SDS011;8037;51.666;7.834;2023-05-20T10:09:19;2.80;;;2.60;;
15876;SDS011;8037;51.666;7.834;2023-05-20T10:12:24;3.40;;;2.70;;
15876;SDS011;8037;51.666;7.834;2023-05-20T10:17:38;2.90;;;2.60;;
15876;SDS011;8037;51.666;7.834;2023-05-20T10:20:16;4.73;;;3.30;;
15876;SDS011;8037;51.666;7.834;2023-05-20T10:22:42;2.60;;;2.40;;
15876;SDS011;8037;51.666;7.834;2023-05-20T10:25:11;3.43;;;3.00;;
15876;SDS011;8037;51.666;7.834;2023-05-20T10:27:46;2.70;;;2.50;;
15876;SDS011;8037;51.666;7.834;2023-05-20T10:30:16;3.10;;;2.80;;
15876;SDS011;8037;51.666;7.834;2023-05-20T10:32:56;3.00;;;2.60;;
15876;SDS011;8037;51.666;7.834;2023-05-20T10:35:26;2.47;;;2.30;;
15876;SDS011;8037;51.666;7.834;2023-05-20T10:38:06;5.40;;;2.90;;
15876;SDS011;8037;51.666;7.834;2023-05-20T10:40:35;3.17;;;2.87;;
15876;SDS011;8037;51.666;7.834;2023-05-20T10:43:08;5.00;;;3.40;;
15876;SDS011;8037;51.666;7.834;2023-05-20T10:45:35;2.83;;;2.57;;
15876;SDS011;8037;51.666;7.834;2023-05-20T10:48:19;7.40;;;3.00;;
15876;SDS011;8037;51.666;7.834;2023-05-20T10:50:47;3.27;;;2.97;;
15876;SDS011;8037;51.666;7.834;2023-05-20T10:53:13;4.97;;;2.57;;
15876;SDS011;8037;51.666;7.834;2023-05-20T10:55:45;3.70;;;2.67;;
15876;SDS011;8037;51.666;7.834;2023-05-20T10:58:13;2.60;;;2.40;;
15876;SDS011;8037;51.666;7.834;2023-05-20T11:00:40;7.03;;;2.10;;
15876;SDS011;8037;51.666;7.834;2023-05-20T11:03:05;2.80;;;2.60;;
15876;SDS011;8037;51.666;7.834;2023-05-20T11:05:32;9.40;;;3.17;;
15876;SDS011;8037;51.666;7.834;2023-05-20T11:08:01;2.60;;;2.40;;
15876;SDS011;8037;51.666;7.834;2023-05-20T11:10:28;3.10;;;2.73;;
15876;SDS011;8037;51.666;7.834;2023-05-20T11:12:56;3.30;;;2.90;;
15876;SDS011;8037;51.666;7.834;2023-05-20T11:15:22;4.63;;;3.00;;
15876;SDS011;8037;51.666;7.834;2023-05-20T11:17:54;3.00;;;2.70;;
15876;SDS011;8037;51.666;7.834;2023-05-20T11:20:21;3.87;;;3.17;;
15876;SDS011;8037;51.666;7.834;2023-05-20T11:22:51;3.67;;;3.47;;
15876;SDS011;8037;51.666;7.834;2023-05-20T11:25:18;5.83;;;3.17;;
15876;SDS011;8037;51.666;7.834;2023-05-20T11:27:44;2.57;;;2.37;;
15876;SDS011;8037;51.666;7.834;2023-05-20T11:30:11;3.90;;;3.57;;
15876;SDS011;8037;51.666;7.834;2023-05-20T11:32:40;3.57;;;2.80;;
15876;SDS011;8037;51.666;7.834;2023-05-20T11:35:06;7.00;;;3.13;;
15876;SDS011;8037;51.666;7.834;2023-05-20T11:37:34;3.10;;;2.80;;
15876;SDS011;8037;51.666;7.834;2023-05-20T11:40:04;2.93;;;2.73;;
15876;SDS011;8037;51.666;7.834;2023-05-20T11:42:34;4.47;;;2.83;;
15876;SDS011;8037;51.666;7.834;2023-05-20T11:45:00;2.60;;;2.40;;
15876;SDS011;8037;51.666;7.834;2023-05-20T11:47:26;5.80;;;2.63;;
15876;SDS011;8037;51.666;7.834;2023-05-20T11:49:52;3.60;;;3.30;;
15876;SDS011;8037;51.666;7.834;2023-05-20T11:52:18;2.47;;;2.27;;
15876;SDS011;8037;51.666;7.834;2023-05-20T11:54:49;2.07;;;1.93;;
15876;SDS011;8037;51.666;7.834;2023-05-20T11:57:15;3.57;;;2.87;;
15876;SDS011;8037;51.666;7.834;2023-05-20T11:59:43;3.73;;;2.37;;
15876;SDS011;8037;51.666;7.834;2023-05-20T12:02:09;2.90;;;2.70;;
15876;SDS011;8037;51.666;7.834;2023-05-20T12:04:35;2.70;;;2.50;;
15876;SDS011;8037;51.666;7.834;2023-05-20T12:07:01;2.30;;;2.20;;
15876;SDS011;8037;51.666;7.834;2023-05-20T12:09:28;2.27;;;2.17;;
15876;SDS011;8037;51.666;7.834;2023-05-20T12:11:54;4.20;;;3.10;;
15876;SDS011;8037;51.666;7.834;2023-05-20T12:14:20;3.43;;;2.40;;
15876;SDS011;8037;51.666;7.834;2023-05-20T12:16:46;2.53;;;2.40;;
15876;SDS011;8037;51.666;7.834;2023-05-20T12:19:12;8.30;;;3.00;;
15876;SDS011;8037;51.666;7.834;2023-05-20T12:21:38;4.80;;;2.60;;
15876;SDS011;8037;51.666;7.834;2023-05-20T12:24:04;2.40;;;2.30;;
15876;SDS011;8037;51.666;7.834;2023-05-20T12:26:32;3.80;;;2.43;;
15876;SDS011;8037;51.666;7.834;2023-05-20T12:28:59;6.30;;;2.77;;
15876;SDS011;8037;51.666;7.834;2023-05-20T12:31:25;2.83;;;2.70;;
15876;SDS011;8037;51.666;7.834;2023-05-20T12:33:51;3.33;;;2.70;;
15876;SDS011;8037;51.666;7.834;2023-05-20T12:36:17;3.77;;;2.40;;
15876;SDS011;8037;51.666;7.834;2023-05-20T12:38:43;1.60;;;1.50;;
15876;SDS011;8037;51.666;7.834;2023-05-20T12:41:09;6.10;;;2.67;;
15876;SDS011;8037;51.666;7.834;2023-05-20T12:43:35;2.90;;;2.70;;
15876;SDS011;8037;51.666;7.834;2023-05-20T12:46:01;2.47;;;2.30;;
15876;SDS011;8037;51.666;7.834;2023-05-20T12:48:27;4.17;;;2.80;;
15876;SDS011;8037;51.666;7.834;2023-05-20T12:50:53;4.30;;;2.20;;
15876;SDS011;8037;51.666;7.834;2023-05-20T12:53:19;2.90;;;2.80;;
15876;SDS011;8037;51.666;7.834;2023-05-20T12:55:45;3.37;;;3.17;;
15876;SDS011;8037;51.666;7.834;2023-05-20T12:58:11;2.47;;;2.37;;
15876;SDS011;8037;51.666;7.834;2023-05-20T13:00:37;1.60;;;1.50;;
15876;SDS011;8037;51.666;7.834;2023-05-20T13:03:03;2.43;;;2.23;;
15876;SDS011;8037;51.666;7.834;2023-05-20T13:05:29;2.17;;;2.07;;
15876;SDS011;8037;51.666;7.834;2023-05-20T13:07:55;2.63;;;2.37;;
15876;SDS011;8037;51.666;7.834;2023-05-20T13:10:21;2.80;;;2.60;;
15876;SDS011;8037;51.666;7.834;2023-05-20T13:12:47;6.30;;;3.07;;
15876;SDS011;8037;51.666;7.834;2023-05-20T13:15:13;5.33;;;3.30;;
15876;SDS011;8037;51.666;7.834;2023-05-20T13:17:40;2.90;;;2.60;;
15876;SDS011;8037;51.666;7.834;2023-05-20T13:20:06;3.67;;;3.27;;
15876;SDS011;8037;51.666;7.834;2023-05-20T13:22:33;3.60;;;2.50;;
15876;SDS011;8037;51.666;7.834;2023-05-20T13:24:59;3.50;;;3.20;;
15876;SDS011;8037;51.666;7.834;2023-05-20T13:27:25;3.20;;;3.00;;
15876;SDS011;8037;51.666;7.834;2023-05-20T13:29:51;3.20;;;3.00;;
15876;SDS011;8037;51.666;7.834;2023-05-20T13:32:17;3.50;;;3.20;;
15876;SDS011;8037;51.666;7.834;2023-05-20T13:34:42;3.10;;;2.90;;
15876;SDS011;8037;51.666;7.834;2023-05-20T13:37:08;2.90;;;2.70;;
15876;SDS011;8037;51.666;7.834;2023-05-20T13:39:34;4.27;;;2.50;;
15876;SDS011;8037;51.666;7.834;2023-05-20T13:42:00;3.43;;;3.10;;
15876;SDS011;8037;51.666;7.834;2023-05-20T13:44:26;3.50;;;3.20;;
15876;SDS011;8037;51.666;7.834;2023-05-20T13:46:52;2.80;;;2.70;;
15876;SDS011;8037;51.666;7.834;2023-05-20T13:49:19;3.60;;;3.30;;
15876;SDS011;8037;51.666;7.834;2023-05-20T13:51:45;3.57;;;2.90;;
15876;SDS011;8037;51.666;7.834;2023-05-20T13:54:11;6.00;;;2.90;;
15876;SDS011;8037;51.666;7.834;2023-05-20T13:56:37;5.27;;;2.93;;
15876;SDS011;8037;51.666;7.834;2023-05-20T13:59:03;4.10;;;3.10;;
15876;SDS011;8037;51.666;7.834;2023-05-20T14:01:29;4.77;;;3.30;;
15876;SDS011;8037;51.666;7.834;2023-05-20T14:03:58;3.57;;;3.30;;
15876;SDS011;8037;51.666;7.834;2023-05-20T14:06:25;5.47;;;3.50;;
15876;SDS011;8037;51.666;7.834;2023-05-20T14:08:52;3.20;;;3.00;;
15876;SDS011;8037;51.666;7.834;2023-05-20T14:11:18;2.80;;;2.60;;
15876;SDS011;8037;51.666;7.834;2023-05-20T14:13:45;6.00;;;3.27;;
15876;SDS011;8037;51.666;7.834;2023-05-20T14:16:11;2.57;;;2.47;;
15876;SDS011;8037;51.666;7.834;2023-05-20T14:18:37;4.20;;;3.80;;
15876;SDS011;8037;51.666;7.834;2023-05-20T14:21:03;3.03;;;2.70;;
15876;SDS011;8037;51.666;7.834;2023-05-20T14:23:29;3.70;;;3.40;;
15876;SDS011;8037;51.666;7.834;2023-05-20T14:25:55;2.90;;;2.70;;
15876;SDS011;8037;51.666;7.834;2023-05-20T14:28:21;3.57;;;2.60;;
15876;SDS011;8037;51.666;7.834;2023-05-20T14:30:47;3.40;;;3.10;;
15876;SDS011;8037;51.666;7.834;2023-05-20T14:33:13;2.70;;;2.50;;
15876;SDS011;8037;51.666;7.834;2023-05-20T14:35:39;3.10;;;2.90;;
15876;SDS011;8037;51.666;7.834;2023-05-20T14:38:05;9.33;;;2.90;;
15876;SDS011;8037;51.666;7.834;2023-05-20T14:40:31;3.00;;;2.80;;
15876;SDS011;8037;51.666;7.834;2023-05-20T14:42:57;2.73;;;2.50;;
15876;SDS011;8037;51.666;7.834;2023-05-20T14:45:23;3.43;;;2.70;;
15876;SDS011;8037;51.666;7.834;2023-05-20T14:47:49;3.00;;;2.80;;
15876;SDS011;8037;51.666;7.834;2023-05-20T14:50:15;3.03;;;2.83;;
15876;SDS011;8037;51.666;7.834;2023-05-20T14:52:41;15.40;;;3.20;;
15876;SDS011;8037;51.666;7.834;2023-05-20T14:55:07;3.47;;;3.17;;
15876;SDS011;8037;51.666;7.834;2023-05-20T14:57:33;20.63;;;2.73;;
15876;SDS011;8037;51.666;7.834;2023-05-20T14:59:59;2.93;;;2.70;;
15876;SDS011;8037;51.666;7.834;2023-05-20T15:02:25;11.70;;;2.60;;
15876;SDS011;8037;51.666;7.834;2023-05-20T15:04:51;2.90;;;2.70;;